Time;durP1;ratioP1;P1;durP2;ratioP2;P2;SDS_P1;SDS_P2;PMS_P1;PMS_P2;Temp;Humidity;BMP_temperature;BMP_pressure;BME280_temperature;BME280_humidity;BME280_pressure;Samples;Min_cycle;Max_cycle;Signal;HPM_P1;HPM_P2
2021/12/13 00:01:34;;;;;;;2.40;2.20;;;15.50;57.60;16.50;101745.00;;;;4958720;28;20204;-42
2021/12/13 00:04:35;;;;;;;2.10;2.00;;;15.40;57.60;16.40;101741.00;;;;4974139;28;20192;-41
2021/12/13 00:07:27;;;;;;;2.30;2.10;;;15.40;57.60;16.40;101745.00;;;;4972948;28;20256;-41
2021/12/13 00:09:55;;;;;;;2.20;2.00;;;15.40;57.60;16.40;101740.00;;;;4974517;28;20173;-41
2021/12/13 00:12:33;;;;;;;2.30;2.10;;;15.40;57.60;16.40;101737.00;;;;4956685;28;20185;-42
2021/12/13 00:14:58;;;;;;;2.20;2.00;;;15.40;57.60;16.40;101735.00;;;;4973378;28;20761;-41
2021/12/13 00:17:35;;;;;;;2.00;1.90;;;15.40;57.60;16.40;101743.00;;;;4957077;28;20197;-41
2021/12/13 00:20:09;;;;;;;2.30;2.10;;;15.30;57.60;16.40;101737.00;;;;4973026;28;20172;-41
2021/12/13 00:22:44;;;;;;;2.47;2.20;;;15.30;57.70;16.30;101742.00;;;;4973801;28;20200;-41
2021/12/13 00:25:18;;;;;;;2.23;2.03;;;15.30;57.70;16.30;101746.00;;;;4974251;28;20164;-42
2021/12/13 00:27:58;;;;;;;2.30;2.10;;;15.30;57.70;16.30;101741.00;;;;4973315;28;20175;-42
2021/12/13 00:31:08;;;;;;;2.20;2.00;;;15.30;57.60;16.30;101745.00;;;;4970312;28;20165;-43
2021/12/13 00:34:02;;;;;;;2.30;2.10;;;15.30;57.80;16.30;101745.00;;;;4971102;28;20201;-43
2021/12/13 00:36:35;;;;;;;2.07;1.97;;;15.20;57.70;16.30;101745.00;;;;4962433;28;20228;-43
2021/12/13 00:39:15;;;;;;;2.00;1.90;;;15.30;57.70;16.30;101750.00;;;;4970929;28;20204;-42
2021/12/13 00:41:42;;;;;;;1.90;1.80;;;15.20;57.80;16.30;101752.00;;;;4969383;28;20207;-43
2021/12/13 00:44:18;;;;;;;2.27;2.07;;;15.20;57.70;16.20;101750.00;;;;4970822;28;20221;-43
2021/12/13 00:46:44;;;;;;;2.23;2.03;;;15.20;57.70;16.20;101751.00;;;;4970625;28;20181;-42
2021/12/13 00:49:11;;;;;;;2.00;1.90;;;15.20;57.70;16.20;101755.00;;;;4970586;28;20818;-42
2021/12/13 00:51:44;;;;;;;2.10;2.00;;;15.20;58.10;16.20;101756.00;;;;4969362;28;20173;-42
2021/12/13 00:54:31;;;;;;;2.13;2.00;;;15.20;57.70;16.20;101756.00;;;;4970833;28;20667;-42
2021/12/13 00:57:03;;;;;;;2.03;1.90;;;15.10;57.80;16.20;101761.00;;;;4970902;28;20284;-42
2021/12/13 00:59:40;;;;;;;2.20;2.10;;;15.10;57.80;16.20;101759.00;;;;4970578;28;20603;-43
2021/12/13 01:02:14;;;;;;;2.10;1.90;;;15.10;57.80;16.20;101755.00;;;;4969316;28;20161;-43
2021/12/13 01:05:09;;;;;;;2.27;2.07;;;15.10;58.00;16.20;101764.00;;;;4970629;28;20197;-42
2021/12/13 01:08:10;;;;;;;2.33;2.13;;;15.10;58.10;16.20;101759.00;;;;4970720;28;20157;-43
2021/12/13 01:10:42;;;;;;;2.17;1.97;;;15.10;57.80;16.20;101759.00;;;;4970029;28;20172;-43
2021/12/13 01:13:18;;;;;;;2.27;2.07;;;15.10;57.80;16.10;101764.00;;;;4970166;28;20715;-42
2021/12/13 01:16:18;;;;;;;2.10;2.00;;;15.10;58.00;16.10;101766.00;;;;4970859;28;20189;-43
2021/12/13 01:19:23;;;;;;;2.00;1.90;;;15.00;57.90;16.10;101768.00;;;;4970604;28;20157;-42
2021/12/13 01:22:00;;;;;;;2.23;2.03;;;15.00;58.20;16.10;101761.00;;;;4969694;28;20187;-43
2021/12/13 01:27:19;;;;;;;2.27;2.10;;;15.00;58.00;16.10;101759.00;;;;4969425;28;20232;-43
2021/12/13 01:29:52;;;;;;;2.20;2.00;;;15.00;57.90;16.10;101766.00;;;;4969037;28;20774;-42
2021/12/13 01:32:18;;;;;;;2.30;2.10;;;15.00;57.90;16.10;101762.00;;;;4968806;28;20213;-42
2021/12/13 01:34:44;;;;;;;2.10;2.00;;;15.00;58.30;16.10;101762.00;;;;4969781;28;20593;-43
2021/12/13 01:37:14;;;;;;;2.03;1.93;;;15.00;58.20;16.10;101760.00;;;;4936504;28;20181;-42
2021/12/13 01:39:47;;;;;;;2.00;1.90;;;14.90;58.00;16.00;101766.00;;;;4970331;28;20157;-43
2021/12/13 01:42:21;;;;;;;2.20;2.00;;;14.90;57.80;16.00;101763.00;;;;4969172;28;20154;-42
2021/12/13 01:44:53;;;;;;;2.20;2.00;;;14.90;57.80;16.00;101776.00;;;;4970035;28;20204;-42
2021/12/13 01:47:28;;;;;;;2.13;1.93;;;14.90;57.80;16.00;101776.00;;;;4969490;28;20312;-42
2021/12/13 01:50:05;;;;;;;2.00;1.90;;;14.90;58.00;16.00;101767.00;;;;4969892;28;20179;-42
2021/12/13 01:52:33;;;;;;;2.10;2.00;;;14.90;58.00;16.00;101770.00;;;;4969283;28;20153;-43
2021/12/13 01:55:05;;;;;;;2.20;2.00;;;14.90;57.90;16.00;101754.00;;;;4969927;28;20533;-42
2021/12/13 01:57:47;;;;;;;1.83;1.73;;;14.90;58.10;16.00;101766.00;;;;4969643;28;20177;-42
2021/12/13 02:00:32;;;;;;;2.30;2.10;;;14.80;57.80;16.00;101765.00;;;;4969453;28;20173;-42
2021/12/13 02:02:58;;;;;;;1.90;1.80;;;14.80;57.90;16.00;101773.00;;;;4969669;28;20201;-43
2021/12/13 02:05:28;;;;;;;1.90;1.80;;;14.80;57.90;16.00;101767.00;;;;4969742;28;20192;-42
2021/12/13 02:08:08;;;;;;;2.00;1.90;;;14.80;57.90;16.00;101761.00;;;;4969343;28;20208;-43
2021/12/13 02:10:37;;;;;;;2.00;1.80;;;14.80;57.80;15.90;101771.00;;;;4969097;28;20601;-43
2021/12/13 02:13:07;;;;;;;2.10;1.97;;;14.90;58.00;15.90;101774.00;;;;4968916;28;20184;-43
2021/12/13 02:18:25;;;;;;;2.10;1.90;;;14.80;57.80;15.90;101750.00;;;;4969154;28;20197;-43
2021/12/13 02:21:06;;;;;;;2.10;2.00;;;14.80;57.80;15.90;101778.00;;;;4968927;28;20880;-42
2021/12/13 02:23:34;;;;;;;1.90;1.80;;;14.80;57.90;15.90;101778.00;;;;4969367;28;20197;-43
2021/12/13 02:26:00;;;;;;;2.00;1.90;;;14.80;58.10;15.90;101776.00;;;;4968854;28;20558;-43
2021/12/13 02:28:29;;;;;;;1.90;1.80;;;14.80;57.80;15.90;101778.00;;;;4968950;28;20556;-44
2021/12/13 02:31:03;;;;;;;2.20;2.00;;;14.80;57.80;15.90;101785.00;;;;4967653;28;20185;-43
2021/12/13 02:33:53;;;;;;;2.03;1.93;;;14.70;57.70;15.90;101770.00;;;;4969212;28;20283;-42
2021/12/13 02:36:27;;;;;;;2.10;2.00;;;14.70;57.70;15.90;101778.00;;;;4968491;28;20256;-43
2021/12/13 02:38:56;;;;;;;2.00;1.90;;;14.70;57.70;15.90;101778.00;;;;4968747;28;20164;-42
2021/12/13 02:41:25;;;;;;;1.80;1.70;;;14.80;57.90;15.80;101778.00;;;;4968593;28;20150;-43
2021/12/13 02:43:55;;;;;;;2.00;1.90;;;14.70;57.90;15.80;101777.00;;;;4968992;28;20189;-43
2021/12/13 02:46:21;;;;;;;1.83;1.73;;;14.70;57.90;15.80;101784.00;;;;4968914;28;20678;-43
2021/12/13 02:48:54;;;;;;;2.00;1.90;;;14.70;57.80;15.80;101779.00;;;;4968074;28;20252;-41
2021/12/13 02:51:28;;;;;;;1.93;1.83;;;14.70;57.90;15.80;101788.00;;;;4968586;28;20184;-43
2021/12/13 02:54:06;;;;;;;1.90;1.80;;;14.70;57.80;15.80;101772.00;;;;4968006;28;20195;-42
2021/12/13 02:56:49;;;;;;;1.90;1.80;;;14.70;57.80;15.80;101771.00;;;;4968923;28;20610;-43
2021/12/13 02:59:15;;;;;;;2.00;1.90;;;14.70;57.90;15.80;101770.00;;;;4968400;28;20640;-43
2021/12/13 03:02:07;;;;;;;1.80;1.70;;;14.70;58.00;15.80;101780.00;;;;4968424;28;20228;-43
2021/12/13 03:04:32;;;;;;;1.80;1.70;;;14.60;57.90;15.80;101778.00;;;;4968614;28;20212;-43
2021/12/13 03:07:06;;;;;;;1.93;1.83;;;14.60;57.90;15.70;101774.00;;;;4968499;28;20212;-44
2021/12/13 03:09:32;;;;;;;1.80;1.70;;;14.60;57.90;15.70;101773.00;;;;4968469;28;20172;-43
2021/12/13 03:11:59;;;;;;;1.90;1.80;;;14.60;58.00;15.70;101779.00;;;;4967321;28;20264;-43
2021/12/13 03:14:29;;;;;;;1.83;1.73;;;14.60;57.80;15.70;101793.00;;;;4968456;28;20208;-43
2021/12/13 03:17:06;;;;;;;1.90;1.80;;;14.60;57.90;15.70;101779.00;;;;4968490;28;20201;-43
2021/12/13 03:19:53;;;;;;;1.90;1.80;;;14.60;58.00;15.70;101782.00;;;;4967432;28;20269;-42
2021/12/13 03:22:46;;;;;;;1.70;1.60;;;14.60;58.00;15.70;101776.00;;;;4951289;28;20161;-43
2021/12/13 03:26:03;;;;;;;2.20;2.00;;;14.60;57.90;15.70;101786.00;;;;4967150;28;20628;-42
2021/12/13 03:29:00;;;;;;;1.90;1.80;;;14.60;57.90;15.70;101792.00;;;;4962111;28;20185;-42
2021/12/13 03:31:27;;;;;;;1.90;1.80;;;14.60;58.00;15.60;101779.00;;;;4968094;28;20772;-42
2021/12/13 03:34:15;;;;;;;1.80;1.70;;;14.60;57.90;15.60;101797.00;;;;4935528;28;20276;-42
2021/12/13 03:37:03;;;;;;;1.97;1.87;;;14.60;57.90;15.60;101796.00;;;;4968155;28;20699;-42
2021/12/13 03:39:42;;;;;;;1.80;1.70;;;14.60;58.00;15.60;101793.00;;;;4968209;28;20569;-41
2021/12/13 03:42:23;;;;;;;1.80;1.70;;;14.60;57.90;15.60;101791.00;;;;4967986;28;20236;-41
2021/12/13 03:44:51;;;;;;;1.83;1.73;;;14.50;57.90;15.60;101798.00;;;;4967988;28;20239;-42
2021/12/13 03:47:24;;;;;;;1.80;1.70;;;14.50;58.00;15.60;101795.00;;;;4967700;28;20264;-42
2021/12/13 03:49:54;;;;;;;1.80;1.70;;;14.50;58.00;15.60;101793.00;;;;4968346;28;20157;-42
2021/12/13 03:52:22;;;;;;;1.90;1.80;;;14.50;57.90;15.60;101801.00;;;;4967823;28;20554;-42
2021/12/13 03:54:49;;;;;;;1.90;1.80;;;14.50;58.00;15.30;101805.00;;;;4968075;28;20730;-41
2021/12/13 03:57:16;;;;;;;1.90;1.80;;;14.50;58.00;15.60;101813.00;;;;4950827;28;20169;-42
2021/12/13 03:59:43;;;;;;;1.90;1.80;;;14.50;58.00;15.60;101808.00;;;;4967924;28;20176;-41
2021/12/13 04:02:19;;;;;;;1.80;1.70;;;14.50;58.00;15.60;101823.00;;;;4967791;28;20245;-41
2021/12/13 04:04:55;;;;;;;1.80;1.70;;;14.50;58.00;15.60;101809.00;;;;4967954;28;20247;-42
2021/12/13 04:07:28;;;;;;;1.70;1.60;;;14.40;58.00;15.60;101808.00;;;;4971722;28;20161;-42
2021/12/13 04:09:57;;;;;;;1.97;1.87;;;14.50;58.10;15.50;101805.00;;;;4971688;28;20165;-41
2021/12/13 04:12:38;;;;;;;1.67;1.57;;;14.40;58.00;15.50;101803.00;;;;4971219;28;20169;-41
2021/12/13 04:15:32;;;;;;;1.70;1.60;;;14.50;58.00;15.50;101810.00;;;;4971677;28;20195;-42
2021/12/13 04:18:12;;;;;;;1.67;1.57;;;14.50;58.10;15.50;101809.00;;;;4971420;28;20204;-43
2021/12/13 04:20:37;;;;;;;1.80;1.70;;;14.40;58.20;15.50;101807.00;;;;4971554;28;20161;-42
2021/12/13 04:23:22;;;;;;;1.90;1.80;;;14.40;58.10;15.50;101809.00;;;;4971165;28;20200;-42
2021/12/13 04:25:50;;;;;;;1.70;1.60;;;14.40;58.00;15.50;101803.00;;;;4971393;28;20288;-42
2021/12/13 04:28:30;;;;;;;1.70;1.60;;;14.40;58.10;15.50;101798.00;;;;4970963;28;20513;-42
2021/12/13 04:31:01;;;;;;;1.50;1.40;;;14.40;58.20;15.50;101810.00;;;;4970975;28;20177;-43
2021/12/13 04:33:34;;;;;;;1.70;1.60;;;14.40;58.10;15.50;101809.00;;;;4971321;28;20188;-42
2021/12/13 04:36:14;;;;;;;1.80;1.70;;;14.40;58.20;15.50;101806.00;;;;4971051;28;20235;-42
2021/12/13 04:38:51;;;;;;;1.80;1.70;;;14.30;58.10;15.50;101814.00;;;;4971140;28;20173;-42
2021/12/13 04:41:46;;;;;;;1.70;1.60;;;14.40;58.20;15.50;101803.00;;;;4970707;28;20320;-42
2021/12/13 04:44:38;;;;;;;1.70;1.60;;;14.40;58.30;15.50;101805.00;;;;4969831;28;20572;-41
2021/12/13 04:47:38;;;;;;;1.87;1.77;;;14.30;58.00;15.50;101811.00;;;;4968013;28;20203;-43
2021/12/13 04:50:29;;;;;;;1.80;1.70;;;14.40;58.10;15.50;101813.00;;;;4941925;28;20271;-44
2021/12/13 04:52:56;;;;;;;1.80;1.70;;;14.30;58.00;15.40;101807.00;;;;4950582;29;20263;-43
2021/12/13 04:55:32;;;;;;;1.73;1.63;;;14.30;57.90;15.40;101813.00;;;;4951198;28;20213;-43
2021/12/13 04:58:00;;;;;;;2.33;1.60;;;14.30;58.00;15.40;101807.00;;;;4950929;28;20540;-42
2021/12/13 05:00:33;;;;;;;1.70;1.60;;;14.30;58.00;15.40;101818.00;;;;4966020;28;20177;-43
2021/12/13 05:03:01;;;;;;;1.40;1.40;;;14.40;58.20;15.40;101821.00;;;;4950583;28;20211;-42
2021/12/13 05:05:27;;;;;;;1.87;1.77;;;14.30;58.10;15.40;101830.00;;;;4950978;29;20173;-43
2021/12/13 05:07:55;;;;;;;1.60;1.50;;;14.30;58.00;15.40;101827.00;;;;4950896;28;20249;-42
2021/12/13 05:10:25;;;;;;;1.60;1.50;;;14.30;58.10;15.40;101827.00;;;;4950882;28;20170;-42
2021/12/13 05:13:12;;;;;;;1.70;1.60;;;14.30;58.10;15.40;101824.00;;;;4950908;28;20257;-43
2021/12/13 05:15:41;;;;;;;1.77;1.67;;;14.30;58.20;15.40;101737.00;;;;4950368;28;20209;-42
2021/12/13 05:18:16;;;;;;;1.60;1.50;;;14.30;58.10;15.40;101828.00;;;;4950189;29;20196;-43
2021/12/13 05:20:41;;;;;;;1.50;1.40;;;14.30;58.20;15.40;101819.00;;;;4965062;28;20786;-44
2021/12/13 05:23:13;;;;;;;1.57;1.47;;;14.30;58.20;15.40;101824.00;;;;4950282;28;20309;-42
2021/12/13 05:25:41;;;;;;;1.67;1.57;;;14.30;58.20;15.40;101827.00;;;;4950831;28;20652;-42
2021/12/13 05:28:13;;;;;;;1.50;1.40;;;14.30;58.20;15.40;101826.00;;;;4950629;29;20170;-43
2021/12/13 05:30:57;;;;;;;1.70;1.60;;;14.30;58.20;15.40;101818.00;;;;4965215;28;20189;-43
2021/12/13 05:33:23;;;;;;;1.60;1.50;;;14.30;58.20;15.40;101818.00;;;;4950195;28;20228;-42
2021/12/13 05:35:52;;;;;;;1.80;1.70;;;14.20;58.10;15.40;101824.00;;;;4950690;28;20698;-43
2021/12/13 05:38:31;;;;;;;4.20;1.50;;;14.20;58.70;15.30;101824.00;;;;4965050;28;20162;-44
2021/12/13 05:40:59;;;;;;;1.60;1.50;;;14.20;58.20;15.30;101824.00;;;;4950647;29;20169;-43
2021/12/13 05:43:41;;;;;;;2.20;1.70;;;14.20;58.20;15.40;101837.00;;;;4949844;28;20569;-43
2021/12/13 05:46:10;;;;;;;1.70;1.60;;;14.20;58.20;15.30;101836.00;;;;4965333;28;20640;-43
2021/12/13 05:48:38;;;;;;;1.70;1.60;;;14.20;58.10;15.30;101833.00;;;;4950586;29;20166;-42
2021/12/13 05:51:31;;;;;;;1.70;1.60;;;14.20;58.30;15.30;101829.00;;;;4950298;28;20257;-42
2021/12/13 05:54:07;;;;;;;1.60;1.50;;;14.20;58.20;15.30;101837.00;;;;4950281;29;20194;-43
2021/12/13 05:56:41;;;;;;;1.83;1.73;;;14.20;58.30;15.30;101836.00;;;;4949667;29;20225;-43
2021/12/13 05:59:23;;;;;;;1.50;1.40;;;14.20;58.20;15.30;101843.00;;;;4950105;29;20641;-43
2021/12/13 06:02:07;;;;;;;1.60;1.50;;;14.20;58.30;15.30;101842.00;;;;4948869;29;20205;-43
2021/12/13 06:05:08;;;;;;;1.50;1.40;;;14.20;58.30;15.30;101839.00;;;;4949489;28;20784;-42
2021/12/13 06:07:36;;;;;;;1.60;1.50;;;14.20;58.30;15.30;101847.00;;;;4964053;28;20209;-43
2021/12/13 06:10:07;;;;;;;1.67;1.50;;;14.20;58.20;15.20;101839.00;;;;4949308;29;20178;-43
2021/12/13 06:12:52;;;;;;;1.50;1.40;;;14.20;58.20;15.30;101845.00;;;;4948138;28;20632;-43
2021/12/13 06:15:39;;;;;;;1.90;1.50;;;14.20;58.20;15.20;101844.00;;;;4949544;28;20213;-43
2021/12/13 06:18:04;;;;;;;1.80;1.70;;;14.10;58.20;15.30;101855.00;;;;4949785;28;20200;-42
2021/12/13 06:20:42;;;;;;;2.00;1.60;;;14.20;58.20;15.20;101855.00;;;;4949452;28;20860;-43
2021/12/13 06:23:08;;;;;;;1.80;1.70;;;14.20;58.20;15.20;101836.00;;;;4963211;28;20185;-43
2021/12/13 06:25:34;;;;;;;1.20;1.20;;;14.10;58.20;15.20;101842.00;;;;4949686;28;20188;-42
2021/12/13 06:28:00;;;;;;;1.63;1.53;;;14.10;58.20;15.20;101839.00;;;;4948435;28;20286;-44
2021/12/13 06:30:38;;;;;;;1.57;1.47;;;14.10;58.20;15.20;101844.00;;;;4949863;28;20178;-43
2021/12/13 06:33:12;;;;;;;1.70;1.60;;;14.10;58.20;15.20;101839.00;;;;4948479;28;20200;-43
2021/12/13 06:35:58;;;;;;;1.27;1.20;;;14.10;58.20;15.30;101851.00;;;;4949062;28;20190;-43
2021/12/13 06:38:31;;;;;;;1.50;1.40;;;14.10;58.20;15.20;101852.00;;;;4949322;28;20776;-43
2021/12/13 06:41:10;;;;;;;1.20;1.20;;;14.10;58.20;15.20;101851.00;;;;4949310;28;20565;-43
2021/12/13 06:44:03;;;;;;;1.50;1.40;;;14.10;58.20;15.20;101850.00;;;;4949489;29;20221;-43
2021/12/13 06:46:37;;;;;;;1.20;1.20;;;14.10;58.20;15.20;101853.00;;;;4948893;29;20197;-43
2021/12/13 06:49:15;;;;;;;1.70;1.60;;;14.10;58.20;15.20;101840.00;;;;4949242;28;20164;-42
2021/12/13 06:51:55;;;;;;;1.60;1.50;;;14.10;58.20;15.20;101851.00;;;;4949157;28;20166;-42
2021/12/13 06:54:21;;;;;;;1.50;1.40;;;14.10;58.20;15.20;101841.00;;;;4948897;28;20185;-42
2021/12/13 06:56:54;;;;;;;1.60;1.50;;;14.10;58.20;15.20;101855.00;;;;4948246;29;20762;-43
2021/12/13 06:59:20;;;;;;;1.43;1.33;;;14.10;58.20;15.20;101856.00;;;;4949074;28;20266;-42
2021/12/13 07:01:58;;;;;;;2.80;1.40;;;14.10;58.40;15.20;101849.00;;;;4948437;29;20554;-42
2021/12/13 07:04:24;;;;;;;2.63;1.80;;;14.10;58.50;15.20;101846.00;;;;4948547;28;20676;-42
2021/12/13 07:06:50;;;;;;;3.13;1.70;;;14.10;58.60;15.20;101848.00;;;;4963627;28;20177;-43
2021/12/13 07:09:20;;;;;;;2.57;1.40;;;14.10;58.70;15.20;101845.00;;;;4963176;28;20169;-42
2021/12/13 07:11:56;;;;;;;3.40;1.70;;;14.10;58.80;15.20;101861.00;;;;4948115;28;20201;-42
2021/12/13 07:14:37;;;;;;;2.50;1.60;;;14.10;58.80;15.20;101862.00;;;;4948127;28;20201;-43
2021/12/13 07:17:40;;;;;;;3.70;1.67;;;14.10;58.90;15.20;101850.00;;;;4949056;28;20284;-42
2021/12/13 07:20:15;;;;;;;1.83;1.60;;;14.10;59.00;15.20;101855.00;;;;4948714;28;20187;-43
2021/12/13 07:22:41;;;;;;;3.27;1.60;;;14.10;58.80;15.20;101854.00;;;;4947647;29;20735;-43
2021/12/13 07:25:14;;;;;;;3.97;1.70;;;14.10;58.80;15.20;101855.00;;;;4948648;28;20182;-42
2021/12/13 07:27:48;;;;;;;4.80;1.50;;;14.00;58.70;15.20;101869.00;;;;4947876;28;20228;-42
2021/12/13 07:30:25;;;;;;;1.73;1.60;;;14.10;58.90;15.20;101873.00;;;;4948619;28;20573;-43
2021/12/13 07:32:58;;;;;;;3.90;1.70;;;14.10;58.90;15.20;101863.00;;;;4948012;28;20198;-43
2021/12/13 07:35:36;;;;;;;2.90;1.70;;;14.10;58.80;15.20;101861.00;;;;4948663;29;20649;-43
2021/12/13 07:38:18;;;;;;;2.60;1.87;;;14.00;58.60;15.20;101870.00;;;;4948753;28;20177;-43
2021/12/13 07:41:04;;;;;;;4.67;1.60;;;14.10;58.80;15.10;101865.00;;;;4951766;28;20193;-42
2021/12/13 07:43:37;;;;;;;3.17;1.70;;;14.10;58.90;15.10;101875.00;;;;4951490;28;20190;-43
2021/12/13 07:46:19;;;;;;;1.57;1.47;;;14.00;58.70;15.10;101877.00;;;;4952656;28;20256;-43
2021/12/13 07:48:45;;;;;;;2.20;1.73;;;14.00;58.80;15.10;101879.00;;;;4952046;28;20668;-43
2021/12/13 07:51:22;;;;;;;3.03;1.70;;;14.00;58.60;15.10;101883.00;;;;4951924;29;20212;-42
2021/12/13 07:53:57;;;;;;;1.93;1.73;;;14.00;58.70;15.10;101887.00;;;;4951243;28;20198;-43
2021/12/13 07:56:33;;;;;;;3.00;1.60;;;14.00;58.70;15.10;101884.00;;;;4952418;28;20200;-44
2021/12/13 07:59:12;;;;;;;1.70;1.60;;;14.00;58.60;15.10;101889.00;;;;4952064;28;20153;-42
2021/12/13 08:02:05;;;;;;;1.60;1.50;;;14.00;58.70;15.10;101890.00;;;;4951816;29;20169;-43
2021/12/13 08:04:46;;;;;;;2.83;1.60;;;14.00;58.90;15.10;101910.00;;;;4951608;29;20249;-44
2021/12/13 08:07:21;;;;;;;1.77;1.60;;;13.90;58.70;15.10;101906.00;;;;4952143;28;20592;-43
2021/12/13 08:10:13;;;;;;;1.87;1.60;;;14.00;58.80;15.10;101912.00;;;;4952411;28;20165;-43
2021/12/13 08:12:41;;;;;;;2.00;1.80;;;13.90;58.50;15.10;101911.00;;;;4950811;28;20186;-43
2021/12/13 08:15:18;;;;;;;2.10;1.70;;;13.90;58.70;15.10;101913.00;;;;4951280;29;20712;-43
2021/12/13 08:17:55;;;;;;;3.90;1.50;;;13.90;58.70;15.10;101916.00;;;;4951947;29;20162;-43
2021/12/13 08:20:52;;;;;;;1.80;1.50;;;14.00;58.90;15.10;101922.00;;;;4952531;28;20723;-43
2021/12/13 08:23:47;;;;;;;2.10;1.90;;;13.90;58.90;15.10;101920.00;;;;4951199;28;20209;-43
2021/12/13 08:26:26;;;;;;;1.80;1.70;;;13.90;58.70;15.10;101944.00;;;;4950840;28;20276;-43
2021/12/13 08:28:53;;;;;;;1.60;1.40;;;13.90;58.60;15.10;101938.00;;;;4951881;28;20170;-43
2021/12/13 08:31:25;;;;;;;1.73;1.63;;;13.90;58.70;15.00;101953.00;;;;4951527;28;20549;-42
2021/12/13 08:33:55;;;;;;;1.70;1.60;;;13.90;58.90;15.00;101951.00;;;;4950447;29;20189;-43
2021/12/13 08:36:23;;;;;;;1.80;1.70;;;13.90;58.70;15.00;101953.00;;;;4951091;28;20193;-43
2021/12/13 08:38:59;;;;;;;1.70;1.60;;;13.90;58.70;15.00;101956.00;;;;4951520;28;20184;-43
2021/12/13 08:41:26;;;;;;;1.70;1.60;;;13.90;58.70;15.00;101945.00;;;;4955986;28;20540;-43
2021/12/13 08:43:55;;;;;;;1.70;1.60;;;13.90;58.80;15.00;101942.00;;;;4969438;28;20201;-43
2021/12/13 08:46:57;;;;;;;1.90;1.80;;;13.90;58.70;15.00;101947.00;;;;4972206;28;20181;-43
2021/12/13 08:50:00;;;;;;;1.60;1.50;;;13.90;58.90;15.00;101946.00;;;;4972336;28;20222;-43
2021/12/13 08:52:35;;;;;;;1.90;1.73;;;13.90;58.70;15.00;101945.00;;;;4970505;28;20208;-42
2021/12/13 08:55:17;;;;;;;1.70;1.60;;;13.90;58.80;15.00;101951.00;;;;4970336;28;20694;-43
2021/12/13 08:58:07;;;;;;;1.73;1.63;;;13.90;58.70;15.00;101937.00;;;;4970680;28;20204;-43
2021/12/13 09:00:50;;;;;;;1.60;1.50;;;13.90;58.80;15.00;101947.00;;;;4971043;28;20169;-43
2021/12/13 09:03:34;;;;;;;2.30;1.60;;;13.90;58.70;15.00;101940.00;;;;4961168;28;20205;-43
2021/12/13 09:06:11;;;;;;;1.77;1.63;;;13.90;58.70;15.10;101944.00;;;;4952135;28;20642;-43
2021/12/13 09:08:58;;;;;;;2.00;1.80;;;14.00;58.90;15.10;101941.00;;;;4966297;28;20265;-43
2021/12/13 09:11:48;;;;;;;2.10;1.90;;;14.30;58.60;15.20;101946.00;;;;4952391;29;20205;-43
2021/12/13 09:14:42;;;;;;;1.80;1.70;;;14.50;58.60;15.40;101944.00;;;;4960165;28;20442;-43
2021/12/13 09:17:34;;;;;;;2.10;1.90;;;14.80;58.30;15.50;101948.00;;;;4966334;28;20276;-43
2021/12/13 09:20:20;;;;;;;2.60;1.90;;;15.10;58.00;15.70;101951.00;;;;4954322;28;20229;-43
2021/12/13 09:23:15;;;;;;;2.17;1.97;;;15.50;57.60;15.90;101944.00;;;;4960626;28;20193;-42
2021/12/13 09:26:04;;;;;;;1.93;1.83;;;15.70;57.40;16.10;101950.00;;;;4951821;29;20165;-42
2021/12/13 09:28:34;;;;;;;2.50;2.30;;;15.80;57.20;16.20;101941.00;;;;4950971;29;20158;-42
2021/12/13 09:31:13;;;;;;;2.40;2.20;;;15.90;57.10;16.30;101949.00;;;;4951937;28;20668;-43
2021/12/13 09:33:49;;;;;;;2.40;2.20;;;16.00;57.10;16.40;101960.00;;;;4951212;28;20193;-42
2021/12/13 09:36:36;;;;;;;4.10;2.37;;;16.00;57.10;16.50;101953.00;;;;4952136;28;20536;-43
2021/12/13 09:39:21;;;;;;;5.40;2.40;;;16.10;57.80;16.60;101958.00;;;;4965492;28;20651;-42
2021/12/13 09:42:05;;;;;;;4.10;2.60;;;16.10;57.90;16.60;101954.00;;;;4970690;28;20177;-43
2021/12/13 09:44:54;;;;;;;7.13;2.30;;;16.10;58.00;16.70;101959.00;;;;4970728;28;20208;-42
2021/12/13 09:47:31;;;;;;;7.93;2.57;;;16.10;58.50;16.70;101959.00;;;;4970422;28;20196;-43
2021/12/13 09:49:56;;;;;;;5.50;2.60;;;16.10;58.80;16.70;101959.00;;;;4969565;28;20181;-43
2021/12/13 09:52:42;;;;;;;6.80;2.60;;;16.10;59.30;16.80;101971.00;;;;4970267;28;20670;-43
2021/12/13 09:55:26;;;;;;;4.37;2.50;;;16.10;59.90;16.80;101965.00;;;;4970921;28;20171;-42
2021/12/13 09:57:59;;;;;;;6.07;2.70;;;16.10;60.20;16.80;101964.00;;;;4969494;28;20216;-42
2021/12/13 10:00:59;;;;;;;5.00;2.60;;;16.20;61.30;16.80;101949.00;;;;4970924;28;20336;-42
2021/12/13 10:03:49;;;;;;;3.90;2.03;;;16.10;61.60;16.90;101953.00;;;;4960824;28;20684;-43
2021/12/13 10:06:44;;;;;;;6.30;2.37;;;16.10;61.80;16.90;101943.00;;;;4970669;28;20165;-42
2021/12/13 10:09:22;;;;;;;4.53;2.40;;;16.10;61.90;16.90;101948.00;;;;4966476;28;20201;-43
2021/12/13 10:12:16;;;;;;;2.67;2.20;;;16.10;61.60;16.90;101952.00;;;;4969956;28;20177;-43
2021/12/13 10:14:54;;;;;;;6.40;2.57;;;16.00;61.50;16.90;101949.00;;;;4967056;28;20209;-43
2021/12/13 10:17:21;;;;;;;6.43;2.40;;;16.10;60.90;16.90;101948.00;;;;4970261;28;20561;-43
2021/12/13 10:19:52;;;;;;;3.00;2.20;;;16.00;60.60;16.90;101942.00;;;;4970421;28;20177;-42
2021/12/13 10:22:22;;;;;;;2.60;2.20;;;16.00;60.50;16.90;101944.00;;;;4966912;28;20223;-43
2021/12/13 10:24:57;;;;;;;3.17;2.40;;;16.00;60.30;16.90;101954.00;;;;4953364;28;20209;-43
2021/12/13 10:27:23;;;;;;;5.07;2.47;;;16.00;60.00;16.90;101947.00;;;;4950699;28;20176;-43
2021/12/13 10:29:55;;;;;;;3.20;2.00;;;16.00;59.90;16.80;101947.00;;;;4950932;28;20178;-42
2021/12/13 10:32:30;;;;;;;3.60;2.37;;;15.90;59.80;16.90;101938.00;;;;4950573;28;20587;-42
2021/12/13 10:35:00;;;;;;;5.67;2.27;;;15.90;59.80;16.90;101940.00;;;;4951036;28;20182;-43
2021/12/13 10:37:35;;;;;;;2.60;2.40;;;15.90;59.80;16.80;101941.00;;;;4951022;29;20217;-43
2021/12/13 10:40:17;;;;;;;2.90;2.33;;;15.90;59.80;16.80;101942.00;;;;4950759;28;20538;-42
2021/12/13 10:43:28;;;;;;;2.73;2.20;;;15.90;59.80;16.80;101945.00;;;;4949951;28;20162;-43
2021/12/13 10:46:03;;;;;;;2.60;2.30;;;15.80;59.80;16.80;101954.00;;;;4941286;29;20659;-43
2021/12/13 10:48:30;;;;;;;4.20;2.13;;;15.80;59.80;16.80;101949.00;;;;4950537;28;20255;-42
2021/12/13 10:51:06;;;;;;;2.73;2.23;;;15.80;59.70;16.80;101945.00;;;;4950678;28;20252;-44
2021/12/13 10:53:31;;;;;;;3.27;2.20;;;15.80;59.80;16.80;101948.00;;;;4949958;28;20368;-43
2021/12/13 10:56:03;;;;;;;2.93;2.33;;;15.80;59.70;16.80;101952.00;;;;4950735;28;20201;-43
2021/12/13 10:58:34;;;;;;;3.80;2.40;;;15.70;59.70;16.70;101952.00;;;;4950478;28;20162;-43
2021/12/13 11:01:15;;;;;;;2.30;2.10;;;15.70;59.70;16.70;101942.00;;;;4957145;28;20165;-43
2021/12/13 11:03:42;;;;;;;3.10;2.17;;;15.70;59.70;16.60;101940.00;;;;4969146;28;20340;-43
2021/12/13 11:06:08;;;;;;;3.50;2.37;;;15.70;59.80;16.70;101950.00;;;;4969530;28;20880;-43
2021/12/13 11:08:41;;;;;;;2.23;1.97;;;15.70;59.60;16.70;101946.00;;;;4969698;28;20540;-43
2021/12/13 11:11:21;;;;;;;2.60;2.30;;;15.70;59.60;16.70;101945.00;;;;4966164;28;20192;-43
2021/12/13 11:13:49;;;;;;;3.97;2.30;;;15.70;59.60;16.70;101934.00;;;;4962548;28;20204;-43
2021/12/13 11:16:21;;;;;;;2.60;2.20;;;15.60;59.60;16.70;101937.00;;;;4966579;28;20556;-43
2021/12/13 11:18:47;;;;;;;2.43;2.20;;;15.60;59.60;16.70;101936.00;;;;4956480;28;20615;-43
2021/12/13 11:21:24;;;;;;;2.47;2.10;;;15.60;59.60;16.70;101944.00;;;;4960555;28;20930;-43
2021/12/13 11:23:50;;;;;;;2.20;1.90;;;15.60;59.60;16.60;101942.00;;;;4949860;28;20189;-43
2021/12/13 11:26:18;;;;;;;4.83;2.13;;;15.60;59.60;16.60;101940.00;;;;4966662;28;20559;-43
2021/12/13 11:28:44;;;;;;;2.93;2.10;;;15.60;59.70;16.60;101930.00;;;;4960393;28;20601;-43
2021/12/13 11:31:30;;;;;;;2.40;2.20;;;15.60;59.60;16.60;101933.00;;;;4955131;28;20252;-43
2021/12/13 11:35:07;;;;;;;2.47;2.27;;;15.60;59.60;16.60;101934.00;;;;4945141;28;20414;-43
2021/12/13 11:38:10;;;;;;;3.00;2.10;;;15.50;59.80;16.60;101939.00;;;;4948147;29;20213;-43